V.a. San Pedro — WAW957 — position and weather

sailwx.info

Track history (hours):
 
Tides and Currents Weather Stations Pressure Air Temp Water Temp Dewpoint Dewpoint Depression Visibility Wind Speed Wind Dir Waves Ship Positions

V.a. San Pedro

Last reported at 2018-Jun-17 20:37 UTC. Time now 2018-Jun-18 00:17 UTC.
Position N 33°43' W 118°15'.

Length 10 m.

Type: Towing. MMSI: 338181878.

Date/timePositionNaut miles runAvg speedWind from/ knotsBaromVisibWave heightAir tempDewpointWater temp
2018-Jun-17 20:37N 33°43' W 118°15'218.5
2018-Jun-17 20:30N 33°43' W 118°13'2 4.8
2018-Jun-17 20:00N 33°45' W 118°11'3 5.2
2018-Jun-17 19:29N 33°43' W 118°13'3 5.5
2018-Jun-17 18:59N 33°44' W 118°17'1 1.9
2018-Jun-17 18:30N 33°43' W 118°17'0 0.0
2018-Jun-17 00:09N 33°43' W 118°17'1 3.9
2018-Jun-16 23:59N 33°44' W 118°16'0 0.3
2018-Jun-16 23:27N 33°44' W 118°17'2 0.9
2018-Jun-16 21:36N 33°43' W 118°15'1 0.4
2018-Jun-16 19:31N 33°43' W 118°16'0 6.8
2018-Jun-16 19:27N 33°43' W 118°16'2 5.0
2018-Jun-16 19:00N 33°42' W 118°13'2 0.1
2018-Jun-16 04:41N 33°43' W 118°15'1 0.1
2018-Jun-15 15:35N 33°42' W 118°16'0 6.2
2018-Jun-15 15:30N 33°42' W 118°16'2 3.4
2018-Jun-15 14:59N 33°44' W 118°16'2 4.5
2018-Jun-15 14:29N 33°46' W 118°15'0 0.4
2018-Jun-15 13:32N 33°46' W 118°15'0 3.1
2018-Jun-15 13:28N 33°46' W 118°15'  
2018-Jun-13 03:15N 33°43' W 118°16'311.0
2018-Jun-13 03:00N 33°44' W 118°13'1 0.9
2018-Jun-13 02:26N 33°44' W 118°14'2 3.7
2018-Jun-13 01:58N 33°46' W 118°13'3 1.6
2018-Jun-12 23:55N 33°43' W 118°15'717.0
2018-Jun-12 23:30N 33°44' W 118°07'1 2.6
2018-Jun-12 22:56N 33°46' W 118°07'2 3.9
2018-Jun-12 22:30N 33°44' W 118°07'4 7.4
2018-Jun-12 21:57N 33°44' W 118°12'3 0.8
2018-Jun-12 17:59N 33°43' W 118°16'4 7.8
2018-Jun-12 17:30N 33°42' W 118°12'1 1.3
2018-Jun-12 16:52N 33°41' W 118°13'3 0.8
2018-Jun-12 13:15N 33°42' W 118°16'1 3.8
2018-Jun-12 13:00N 33°43' W 118°16'3 5.1
2018-Jun-12 12:30N 33°45' W 118°16'1 1.0
2018-Jun-12 11:49N 33°46' W 118°15'2 0.1
2018-Jun-10 23:55N 33°44' W 118°16'0 0.1
2018-Jun-10 23:26N 33°44' W 118°17'715.4
2018-Jun-10 23:00N 33°44' W 118°09'4 7.3
2018-Jun-10 22:28N 33°43' W 118°04'1 1.4
2018-Jun-10 22:00N 33°44' W 118°05'3 5.4
2018-Jun-10 21:29N 33°44' W 118°08'4 7.7
2018-Jun-10 21:00N 33°44' W 118°12'4 0.7
2018-Jun-10 15:28N 33°43' W 118°17'4 8.1
2018-Jun-10 15:00N 33°45' W 118°13'0 0.1
2018-Jun-10 14:00N 33°46' W 118°13'3 0.2
2018-Jun-09 16:22N 33°43' W 118°16'1 1.7
2018-Jun-09 15:57N 33°44' W 118°16'1 0.0
2018-Jun-08 02:49N 33°43' W 118°17'1 2.7
2018-Jun-08 02:30N 33°43' W 118°16'1 0.2
2018-Jun-07 22:11N 33°44' W 118°16'1 5.7
2018-Jun-07 22:00N 33°45' W 118°16'2 3.3
2018-Jun-07 21:30N 33°46' W 118°15'2 3.3
2018-Jun-07 21:00N 33°45' W 118°16'  
Track history (hours):
 
Tides and Currents Weather Stations Pressure Air Temp Water Temp Dewpoint Dewpoint Depression Visibility Wind Speed Wind Dir Waves Ship Positions

V.a. San Pedro

Last reported at 2018-Jun-17 20:37 UTC. Time now 2018-Jun-18 00:17 UTC.
Position N 33°43' W 118°15'.

Length 10 m.

Type: Towing. MMSI: 338181878.

Date/timePositionNaut miles runAvg speedWind from/ knotsBaromVisibWave heightAir tempDewpointWater temp
2018-Jun-17 20:37N 33°43' W 118°15'218.5
2018-Jun-17 20:30N 33°43' W 118°13'2 4.8
2018-Jun-17 20:00N 33°45' W 118°11'3 5.2
2018-Jun-17 19:29N 33°43' W 118°13'3 5.5
2018-Jun-17 18:59N 33°44' W 118°17'1 1.9
2018-Jun-17 18:30N 33°43' W 118°17'0 0.0
2018-Jun-17 00:09N 33°43' W 118°17'1 3.9
2018-Jun-16 23:59N 33°44' W 118°16'0 0.3
2018-Jun-16 23:27N 33°44' W 118°17'2 0.9
2018-Jun-16 21:36N 33°43' W 118°15'1 0.4
2018-Jun-16 19:31N 33°43' W 118°16'0 6.8
2018-Jun-16 19:27N 33°43' W 118°16'2 5.0
2018-Jun-16 19:00N 33°42' W 118°13'2 0.1
2018-Jun-16 04:41N 33°43' W 118°15'1 0.1
2018-Jun-15 15:35N 33°42' W 118°16'0 6.2
2018-Jun-15 15:30N 33°42' W 118°16'2 3.4
2018-Jun-15 14:59N 33°44' W 118°16'2 4.5
2018-Jun-15 14:29N 33°46' W 118°15'0 0.4
2018-Jun-15 13:32N 33°46' W 118°15'0 3.1
2018-Jun-15 13:28N 33°46' W 118°15'  
2018-Jun-13 03:15N 33°43' W 118°16'311.0
2018-Jun-13 03:00N 33°44' W 118°13'1 0.9
2018-Jun-13 02:26N 33°44' W 118°14'2 3.7
2018-Jun-13 01:58N 33°46' W 118°13'3 1.6
2018-Jun-12 23:55N 33°43' W 118°15'717.0
2018-Jun-12 23:30N 33°44' W 118°07'1 2.6
2018-Jun-12 22:56N 33°46' W 118°07'2 3.9
2018-Jun-12 22:30N 33°44' W 118°07'4 7.4
2018-Jun-12 21:57N 33°44' W 118°12'3 0.8
2018-Jun-12 17:59N 33°43' W 118°16'4 7.8
2018-Jun-12 17:30N 33°42' W 118°12'1 1.3
2018-Jun-12 16:52N 33°41' W 118°13'3 0.8
2018-Jun-12 13:15N 33°42' W 118°16'1 3.8
2018-Jun-12 13:00N 33°43' W 118°16'3 5.1
2018-Jun-12 12:30N 33°45' W 118°16'1 1.0
2018-Jun-12 11:49N 33°46' W 118°15'2 0.1
2018-Jun-10 23:55N 33°44' W 118°16'0 0.1
2018-Jun-10 23:26N 33°44' W 118°17'715.4
2018-Jun-10 23:00N 33°44' W 118°09'4 7.3
2018-Jun-10 22:28N 33°43' W 118°04'1 1.4
2018-Jun-10 22:00N 33°44' W 118°05'3 5.4
2018-Jun-10 21:29N 33°44' W 118°08'4 7.7
2018-Jun-10 21:00N 33°44' W 118°12'4 0.7
2018-Jun-10 15:28N 33°43' W 118°17'4 8.1
2018-Jun-10 15:00N 33°45' W 118°13'0 0.1
2018-Jun-10 14:00N 33°46' W 118°13'3 0.2
2018-Jun-09 16:22N 33°43' W 118°16'1 1.7
2018-Jun-09 15:57N 33°44' W 118°16'1 0.0
2018-Jun-08 02:49N 33°43' W 118°17'1 2.7
2018-Jun-08 02:30N 33°43' W 118°16'1 0.2
2018-Jun-07 22:11N 33°44' W 118°16'1 5.7
2018-Jun-07 22:00N 33°45' W 118°16'2 3.3
2018-Jun-07 21:30N 33°46' W 118°15'2 3.3
2018-Jun-07 21:00N 33°45' W 118°16'  

Dump ship's entire track history